x

Sentry Shoal (46131) Wave Buoy

7:00 - Mon 3rd Aug 2015 All times are PDT. -7 hours from GMT.

  • Sig Wave height 1.6ft
  • Peak Period 3s
  • Wind
    16mph, 18mph gusts
  • Sea Temp 60°f
  • Ar Temp 66°f
  • Sea Pressure 1012.3mb
  • Sentry Shoal
  • Sentry Shoal

More Historic Weather Station data

Upgrade to MSW Pro to gain access to the past 30 days of data for over 8000 Wavebouys and Weather Stations around the globe.

Join Pro

Comparision Forecast

View Surf forecast
   
Seg 08/03 7:00 1.6ft 3s 16 18 mph 1012.3mb 60f 66f
6:00 2ft 3s 13 18 mph 1012.3mb 61f 66f
5:00 2ft 3s 22 27 mph 1012.1mb 62f 67f
4:00 1.3ft 3s 20 25 mph 1012.3mb 62f 67f
3:00 2ft 4s 18 22 mph 1012.8mb 63f 67f
2:00 2.5ft 3s 18 22 mph 1012.9mb 63f 64f
1:00 1.3ft 3s 25 29 mph 1012.3mb 63f 65f
12:00 0.7ft 2s 13 16 mph 1012.3mb 65f 66f
11:00 0.3ft 2s 9 11 mph 1012.4mb 64f 64f
10:00 0.3ft 2s 9
mph
1012.2mb 62f 62f
9:00 0.7ft 2s 7 9 mph 1012.1mb 62f 61f
8:00 0.7ft 3s 9 11 mph 1011.9mb 61f 60f
7:00 0.7ft 3s 9 11 mph 1011.7mb 61f 60f
6:00 0.7ft 3s 9 11 mph 1011.6mb 60f 60f
5:00 0.7ft 2s 11 13 mph 1011.3mb 60f 60f
4:00 0.7ft 2s 11
mph
1011.2mb 60f 62f
3:00 0.7ft 2s 9
mph
1011.5mb 60f 62f
2:00 1ft 3s 11 13 mph 1011.6mb 61f 62f
1:00 1ft 3s 11 16 mph 1011.5mb 62f 63f
12:00 1ft 2s 16 18 mph 1011.2mb 63f 64f
Dom 08/02 11:00 1ft 3s 13 16 mph 1011.2mb 63f 64f
9:00 1ft 2s 13 16 mph 1011.1mb 63f 67f
8:00 1ft 3s 13 16 mph 1010.7mb 63f 69f
7:00 0.7ft 2s 11 13 mph 1010.7mb 64f 70f
6:00 0.3ft 2s 9 11 mph 1011.1mb 65f 71f
5:00 0.3ft 2s 4 7 mph 1011.9mb 65f 68f
4:00 0.3ft 2s 4 7 mph 1012.3mb 63f 68f
3:00 0.3ft 2s 4 7 mph 1013mb 62f 68f
2:00 0.3ft 3s 7
mph
1013.6mb 61f 66f
1:00 0.7ft 2s 11
mph
1014.1mb 61f 64f
12:00 0.7ft 2s 11 13 mph 1014.5mb 61f 63f
11:00 0.7ft 2s 13
mph
1014.8mb 61f 62f
10:00 0.7ft 2s 11 13 mph 1014.9mb 61f 62f
9:00 1ft 2s 9
mph
1014.8mb 60f 61f
8:00 1.3ft 3s 16 18 mph 1014.4mb 59f 61f
7:00 1ft 2s 11 13 mph 1014.2mb 59f 60f
6:00 1.6ft 3s 18 22 mph 1013.6mb 59f 61f
5:00 1.3ft 2s 20 22 mph 1013.5mb 59f 60f
4:00 2ft 3s 13 18 mph 1013.7mb 59f 61f
3:00 1.6ft 3s 22 25 mph 1013.4mb 60f 61f
2:00 1.6ft 3s 20 22 mph 1013.7mb 61f 62f
1:00 1.6ft 3s 18 20 mph 1013.8mb 61f 63f
12:00 1.3ft 2s 20 22 mph 1013.9mb 62f 64f
Sáb 08/01 11:00 1.3ft 2s 20 22 mph 1013.9mb 63f 65f
10:00 1.3ft 3s 16 18 mph 1013.9mb 64f 66f
9:00 1.3ft 3s 20 22 mph 1013.2mb 65f 68f
8:00 1.3ft 3s 18 20 mph 1013mb 66f 70f
7:00 1ft 2s 16 18 mph 1013.1mb 66f 71f
6:00 0.7ft 2s 13 16 mph 1013.4mb 65f 71f
5:00 0.3ft 2s 9 11 mph 1014.1mb 65f 70f
4:00 0.3ft 2s 9 11 mph 1014.7mb 66f 70f
3:00 0.3ft 2s 9
mph
1015.5mb 66f 69f
2:00 0.3ft 2s 9
mph
1015.9mb 67f 69f
1:00 0.7ft 2s 11
mph
1016.3mb 67f 68f
12:00 0.7ft 3s 9
mph
1016.8mb 66f 66f
11:00 1ft 2s 9 11 mph 1017mb 64f 65f
10:00 1.3ft 2s 13 16 mph 1017.1mb 62f 64f
9:00 1.3ft 3s 18 20 mph 1016.9mb 62f 63f
8:00 1.3ft 3s 18 22 mph 1016.9mb 60f 62f
7:00 1.3ft 3s 13 18 mph 1017.1mb 61f 62f
6:00 1.3ft 2s 16 18 mph 1016.7mb 61f 62f
5:00 1.3ft 2s 13 18 mph 1016.5mb 62f 62f
4:00 1.6ft 3s 16 20 mph 1016.5mb 62f 62f
3:00 2ft 3s 18 20 mph 1016.3mb 60f 63f
2:00 1.6ft 3s 20 22 mph 1016.4mb 62f 64f
1:00 1.6ft 3s 18 22 mph 1016.4mb 64f 65f
12:00 1.6ft 3s 20 25 mph 1016.3mb 64f 66f
Sex 07/31 11:00 1.3ft 3s 18 22 mph 1016.1mb 65f 67f
10:00 1.3ft 3s 16 20 mph 1016.1mb 65f 68f
9:00 1.3ft 3s 16 20 mph 1015.6mb 66f 70f
8:00 1.3ft 3s 18 20 mph 1015.3mb 67f 72f
7:00 0.7ft 2s 18 22 mph 1015.2mb 68f 74f
6:00 0.3ft 2s 9 13 mph 1015.7mb 72f 73f
5:00 0.3ft 5s 4
mph
1016.3mb 72f 73f
3:00 0.3ft 3s 2 4 mph 1017.9mb 68f 70f
2:00 0.3ft 4s 4
mph
1018.5mb 67f 69f
1:00 0.3ft 2s 4
mph
1019mb 65f 68f
12:00 0.3ft 2s 7 9 mph 1019.4mb 65f 67f
11:00 0.7ft 2s 9
mph
1019.8mb 64f 65f
10:00 0.7ft 2s 11 13 mph 1019.8mb 64f 64f
9:00 1ft 3s 11 13 mph 1019.9mb 63f 62f
8:00 1.3ft 3s 13 16 mph 1019.6mb 63f 62f
7:00 1.3ft 3s 16 18 mph 1019.2mb 63f 62f
6:00 1.3ft 3s 18 20 mph 1018.7mb 64f 62f
5:00 1.3ft 3s 18 20 mph 1018.3mb 64f 63f
4:00 1.3ft 3s 18 22 mph 1018mb 64f 64f